BME weather

Broome International Airport
Broome, Western Australia, Australia

Public forecast

Using degrees Celsius for public forecast. Weather courtesy of forecast.io.

METAR (pilot weather report)

Retrieved 2017/09/25 09:00 UTC (2 hours ago):

YBRM 250900Z AUTO 26008KT 9999 // NCD 26/18 Q1010

TAF (pilot weather forecast)

Retrieved 2017/09/25 06:37 UTC (4 hours ago):

TAF YBRM 250451Z 2506/2606 25014KT 9999 SCT035 FM251200 23004KT 9999 SCT025 FM260300 25012KT 9999 SCT020